sensor_id;sensor_type;location;lat;lon;timestamp;temperature;humidity
63017;DHT22;50274;45.640;11.756;2023-09-07T00:00:23;22.80;56.10
63017;DHT22;50274;45.640;11.756;2023-09-07T00:02:49;22.70;56.10
63017;DHT22;50274;45.640;11.756;2023-09-07T00:05:14;22.70;56.20
63017;DHT22;50274;45.640;11.756;2023-09-07T00:07:40;22.70;56.30
63017;DHT22;50274;45.640;11.756;2023-09-07T00:10:06;22.70;56.30
63017;DHT22;50274;45.640;11.756;2023-09-07T00:12:33;22.60;56.40
63017;DHT22;50274;45.640;11.756;2023-09-07T00:14:59;22.60;56.40
63017;DHT22;50274;45.640;11.756;2023-09-07T00:17:25;22.60;56.50
63017;DHT22;50274;45.640;11.756;2023-09-07T00:19:51;22.60;56.50
63017;DHT22;50274;45.640;11.756;2023-09-07T00:22:18;22.50;56.50
63017;DHT22;50274;45.640;11.756;2023-09-07T00:24:45;22.50;56.60
63017;DHT22;50274;45.640;11.756;2023-09-07T00:27:11;22.50;56.60
63017;DHT22;50274;45.640;11.756;2023-09-07T00:29:39;22.50;56.80
63017;DHT22;50274;45.640;11.756;2023-09-07T00:32:05;22.50;56.70
63017;DHT22;50274;45.640;11.756;2023-09-07T00:34:31;22.50;57.00
63017;DHT22;50274;45.640;11.756;2023-09-07T00:36:57;22.40;57.00
63017;DHT22;50274;45.640;11.756;2023-09-07T00:39:23;22.40;57.00
63017;DHT22;50274;45.640;11.756;2023-09-07T00:41:49;22.30;57.10
63017;DHT22;50274;45.640;11.756;2023-09-07T00:44:15;22.40;57.00
63017;DHT22;50274;45.640;11.756;2023-09-07T00:46:41;22.30;57.00
63017;DHT22;50274;45.640;11.756;2023-09-07T00:49:07;22.30;57.00
63017;DHT22;50274;45.640;11.756;2023-09-07T00:51:33;22.30;57.00
63017;DHT22;50274;45.640;11.756;2023-09-07T00:53:59;22.30;57.20
63017;DHT22;50274;45.640;11.756;2023-09-07T00:56:28;22.20;57.10
63017;DHT22;50274;45.640;11.756;2023-09-07T00:58:54;22.20;57.00
63017;DHT22;50274;45.640;11.756;2023-09-07T01:01:22;22.20;57.20
63017;DHT22;50274;45.640;11.756;2023-09-07T01:03:50;22.10;57.10
63017;DHT22;50274;45.640;11.756;2023-09-07T01:06:20;22.10;57.10
63017;DHT22;50274;45.640;11.756;2023-09-07T01:08:52;22.10;57.10
63017;DHT22;50274;45.640;11.756;2023-09-07T01:11:19;22.10;57.10
63017;DHT22;50274;45.640;11.756;2023-09-07T01:13:49;22.10;57.10
63017;DHT22;50274;45.640;11.756;2023-09-07T01:16:15;22.10;57.20
63017;DHT22;50274;45.640;11.756;2023-09-07T01:18:42;22.10;57.20
63017;DHT22;50274;45.640;11.756;2023-09-07T01:21:09;22.00;57.30
63017;DHT22;50274;45.640;11.756;2023-09-07T01:23:38;22.00;57.30
63017;DHT22;50274;45.640;11.756;2023-09-07T01:26:08;22.00;57.40
63017;DHT22;50274;45.640;11.756;2023-09-07T01:28:34;21.90;57.40
63017;DHT22;50274;45.640;11.756;2023-09-07T01:31:00;21.90;57.50
63017;DHT22;50274;45.640;11.756;2023-09-07T01:33:29;22.00;57.50
63017;DHT22;50274;45.640;11.756;2023-09-07T01:35:55;21.90;57.50
63017;DHT22;50274;45.640;11.756;2023-09-07T01:38:21;22.00;57.50
63017;DHT22;50274;45.640;11.756;2023-09-07T01:40:47;22.00;57.60
63017;DHT22;50274;45.640;11.756;2023-09-07T01:43:13;22.00;57.60
63017;DHT22;50274;45.640;11.756;2023-09-07T01:45:39;22.00;57.60
63017;DHT22;50274;45.640;11.756;2023-09-07T01:48:10;22.00;57.70
63017;DHT22;50274;45.640;11.756;2023-09-07T01:50:36;22.00;57.70
63017;DHT22;50274;45.640;11.756;2023-09-07T01:53:02;21.90;57.90
63017;DHT22;50274;45.640;11.756;2023-09-07T01:55:32;21.90;58.00
63017;DHT22;50274;45.640;11.756;2023-09-07T01:57:58;21.80;58.10
63017;DHT22;50274;45.640;11.756;2023-09-07T02:00:24;21.80;58.20
63017;DHT22;50274;45.640;11.756;2023-09-07T02:02:49;21.70;58.20
63017;DHT22;50274;45.640;11.756;2023-09-07T02:05:15;21.80;58.20
63017;DHT22;50274;45.640;11.756;2023-09-07T02:07:42;21.80;58.20
63017;DHT22;50274;45.640;11.756;2023-09-07T02:10:09;21.80;58.20
63017;DHT22;50274;45.640;11.756;2023-09-07T02:12:35;21.80;58.20
63017;DHT22;50274;45.640;11.756;2023-09-07T02:15:05;21.80;58.20
63017;DHT22;50274;45.640;11.756;2023-09-07T02:17:30;21.80;58.20
63017;DHT22;50274;45.640;11.756;2023-09-07T02:19:57;21.80;58.20
63017;DHT22;50274;45.640;11.756;2023-09-07T02:22:23;21.80;58.20
63017;DHT22;50274;45.640;11.756;2023-09-07T02:24:49;21.80;58.30
63017;DHT22;50274;45.640;11.756;2023-09-07T02:27:15;21.80;58.40
63017;DHT22;50274;45.640;11.756;2023-09-07T02:29:41;21.80;58.50
63017;DHT22;50274;45.640;11.756;2023-09-07T02:32:07;21.70;58.50
63017;DHT22;50274;45.640;11.756;2023-09-07T02:34:32;21.70;58.60
63017;DHT22;50274;45.640;11.756;2023-09-07T02:37:02;21.70;58.60
63017;DHT22;50274;45.640;11.756;2023-09-07T02:39:29;21.70;58.80
63017;DHT22;50274;45.640;11.756;2023-09-07T02:41:54;21.70;58.90
63017;DHT22;50274;45.640;11.756;2023-09-07T02:44:20;21.60;58.90
63017;DHT22;50274;45.640;11.756;2023-09-07T02:46:46;21.70;59.00
63017;DHT22;50274;45.640;11.756;2023-09-07T02:49:12;21.60;59.10
63017;DHT22;50274;45.640;11.756;2023-09-07T02:51:38;21.60;59.10
63017;DHT22;50274;45.640;11.756;2023-09-07T02:54:05;21.60;59.20
63017;DHT22;50274;45.640;11.756;2023-09-07T02:56:31;21.60;59.20
63017;DHT22;50274;45.640;11.756;2023-09-07T02:58:56;21.60;59.30
63017;DHT22;50274;45.640;11.756;2023-09-07T03:01:22;21.50;59.40
63017;DHT22;50274;45.640;11.756;2023-09-07T03:03:48;21.50;59.50
63017;DHT22;50274;45.640;11.756;2023-09-07T03:06:15;21.50;59.60
63017;DHT22;50274;45.640;11.756;2023-09-07T03:08:42;21.50;59.70
63017;DHT22;50274;45.640;11.756;2023-09-07T03:11:08;21.40;60.10
63017;DHT22;50274;45.640;11.756;2023-09-07T03:13:35;21.30;60.00
63017;DHT22;50274;45.640;11.756;2023-09-07T03:16:02;21.20;60.20
63017;DHT22;50274;45.640;11.756;2023-09-07T03:18:29;21.10;60.40
63017;DHT22;50274;45.640;11.756;2023-09-07T03:20:55;21.10;60.50
63017;DHT22;50274;45.640;11.756;2023-09-07T03:23:23;21.10;60.70
63017;DHT22;50274;45.640;11.756;2023-09-07T03:25:49;21.00;60.90
63017;DHT22;50274;45.640;11.756;2023-09-07T03:28:15;21.00;61.00
63017;DHT22;50274;45.640;11.756;2023-09-07T03:30:41;20.90;61.20
63017;DHT22;50274;45.640;11.756;2023-09-07T03:33:07;20.80;61.30
63017;DHT22;50274;45.640;11.756;2023-09-07T03:35:33;20.70;61.50
63017;DHT22;50274;45.640;11.756;2023-09-07T03:37:59;20.70;61.80
63017;DHT22;50274;45.640;11.756;2023-09-07T03:40:25;20.70;61.90
63017;DHT22;50274;45.640;11.756;2023-09-07T03:42:50;20.70;61.90
63017;DHT22;50274;45.640;11.756;2023-09-07T03:45:16;20.60;62.00
63017;DHT22;50274;45.640;11.756;2023-09-07T03:47:43;20.60;62.00
63017;DHT22;50274;45.640;11.756;2023-09-07T03:50:10;20.60;62.10
63017;DHT22;50274;45.640;11.756;2023-09-07T03:52:36;20.60;62.10
63017;DHT22;50274;45.640;11.756;2023-09-07T03:55:02;20.70;62.10
63017;DHT22;50274;45.640;11.756;2023-09-07T03:57:28;20.70;62.00
63017;DHT22;50274;45.640;11.756;2023-09-07T03:59:54;20.70;62.00
63017;DHT22;50274;45.640;11.756;2023-09-07T04:02:24;20.70;62.00
63017;DHT22;50274;45.640;11.756;2023-09-07T04:04:54;20.70;62.20
63017;DHT22;50274;45.640;11.756;2023-09-07T04:07:21;20.60;62.10
63017;DHT22;50274;45.640;11.756;2023-09-07T04:09:47;20.50;62.20
63017;DHT22;50274;45.640;11.756;2023-09-07T04:12:13;20.50;62.30
63017;DHT22;50274;45.640;11.756;2023-09-07T04:14:39;20.50;62.40
63017;DHT22;50274;45.640;11.756;2023-09-07T04:17:05;20.50;62.60
63017;DHT22;50274;45.640;11.756;2023-09-07T04:19:31;20.40;62.70
63017;DHT22;50274;45.640;11.756;2023-09-07T04:21:57;20.30;62.70
63017;DHT22;50274;45.640;11.756;2023-09-07T04:24:23;20.30;62.90
63017;DHT22;50274;45.640;11.756;2023-09-07T04:26:49;20.20;62.90
63017;DHT22;50274;45.640;11.756;2023-09-07T04:29:15;20.30;62.90
63017;DHT22;50274;45.640;11.756;2023-09-07T04:31:41;20.30;62.90
63017;DHT22;50274;45.640;11.756;2023-09-07T04:34:07;20.30;62.80
63017;DHT22;50274;45.640;11.756;2023-09-07T04:36:33;20.30;62.80
63017;DHT22;50274;45.640;11.756;2023-09-07T04:38:59;20.40;62.70
63017;DHT22;50274;45.640;11.756;2023-09-07T04:41:26;20.40;62.70
63017;DHT22;50274;45.640;11.756;2023-09-07T04:43:52;20.40;62.60
63017;DHT22;50274;45.640;11.756;2023-09-07T04:46:21;20.30;62.50
63017;DHT22;50274;45.640;11.756;2023-09-07T04:48:47;20.40;62.50
63017;DHT22;50274;45.640;11.756;2023-09-07T04:51:13;20.40;62.50
63017;DHT22;50274;45.640;11.756;2023-09-07T04:53:39;20.40;62.50
63017;DHT22;50274;45.640;11.756;2023-09-07T04:56:07;20.30;62.60
63017;DHT22;50274;45.640;11.756;2023-09-07T04:58:36;20.30;62.70
63017;DHT22;50274;45.640;11.756;2023-09-07T05:01:05;20.30;62.70
63017;DHT22;50274;45.640;11.756;2023-09-07T05:03:31;20.40;62.60
63017;DHT22;50274;45.640;11.756;2023-09-07T05:05:59;20.40;62.60
63017;DHT22;50274;45.640;11.756;2023-09-07T05:08:25;20.40;62.50
63017;DHT22;50274;45.640;11.756;2023-09-07T05:11:01;20.40;62.40
63017;DHT22;50274;45.640;11.756;2023-09-07T05:13:28;20.40;62.30
63017;DHT22;50274;45.640;11.756;2023-09-07T05:15:55;20.40;62.30
63017;DHT22;50274;45.640;11.756;2023-09-07T05:18:22;20.40;62.30
63017;DHT22;50274;45.640;11.756;2023-09-07T05:20:48;20.50;62.30
63017;DHT22;50274;45.640;11.756;2023-09-07T05:23:20;20.50;62.30
63017;DHT22;50274;45.640;11.756;2023-09-07T05:25:47;20.50;62.20
63017;DHT22;50274;45.640;11.756;2023-09-07T05:28:14;20.50;62.20
63017;DHT22;50274;45.640;11.756;2023-09-07T05:30:41;20.50;62.20
63017;DHT22;50274;45.640;11.756;2023-09-07T05:33:08;20.60;62.10
63017;DHT22;50274;45.640;11.756;2023-09-07T05:35:34;20.60;62.10
63017;DHT22;50274;45.640;11.756;2023-09-07T05:38:00;20.60;62.10
63017;DHT22;50274;45.640;11.756;2023-09-07T05:40:26;20.60;62.00
63017;DHT22;50274;45.640;11.756;2023-09-07T05:42:52;20.60;61.90
63017;DHT22;50274;45.640;11.756;2023-09-07T05:45:18;20.70;62.00
63017;DHT22;50274;45.640;11.756;2023-09-07T05:47:44;20.70;61.90
63017;DHT22;50274;45.640;11.756;2023-09-07T05:50:09;20.80;61.90
63017;DHT22;50274;45.640;11.756;2023-09-07T05:52:35;20.90;62.00
63017;DHT22;50274;45.640;11.756;2023-09-07T05:55:01;20.90;62.20
63017;DHT22;50274;45.640;11.756;2023-09-07T05:57:28;21.00;61.90
63017;DHT22;50274;45.640;11.756;2023-09-07T05:59:53;21.10;61.80
63017;DHT22;50274;45.640;11.756;2023-09-07T06:02:19;21.20;61.70
63017;DHT22;50274;45.640;11.756;2023-09-07T06:04:45;21.20;61.70
63017;DHT22;50274;45.640;11.756;2023-09-07T06:07:11;21.30;61.70
63017;DHT22;50274;45.640;11.756;2023-09-07T06:09:37;21.50;61.50
63017;DHT22;50274;45.640;11.756;2023-09-07T06:12:03;21.60;61.50
63017;DHT22;50274;45.640;11.756;2023-09-07T06:14:29;21.70;61.50
63017;DHT22;50274;45.640;11.756;2023-09-07T06:16:55;21.80;61.40
63017;DHT22;50274;45.640;11.756;2023-09-07T06:19:21;21.90;61.20
63017;DHT22;50274;45.640;11.756;2023-09-07T06:21:46;22.00;61.30
63017;DHT22;50274;45.640;11.756;2023-09-07T06:24:12;22.10;61.60
63017;DHT22;50274;45.640;11.756;2023-09-07T06:26:38;22.20;61.60
63017;DHT22;50274;45.640;11.756;2023-09-07T06:29:04;22.30;61.50
63017;DHT22;50274;45.640;11.756;2023-09-07T06:31:30;22.40;61.30
63017;DHT22;50274;45.640;11.756;2023-09-07T06:33:55;22.50;61.20
63017;DHT22;50274;45.640;11.756;2023-09-07T06:36:21;22.60;61.00
63017;DHT22;50274;45.640;11.756;2023-09-07T06:38:47;22.60;60.80
63017;DHT22;50274;45.640;11.756;2023-09-07T06:41:13;22.70;60.70
63017;DHT22;50274;45.640;11.756;2023-09-07T06:43:39;22.90;60.60
63017;DHT22;50274;45.640;11.756;2023-09-07T06:46:07;23.00;60.50
63017;DHT22;50274;45.640;11.756;2023-09-07T06:48:34;23.10;60.40
63017;DHT22;50274;45.640;11.756;2023-09-07T06:51:03;23.20;60.20
63017;DHT22;50274;45.640;11.756;2023-09-07T06:53:30;23.30;60.10
63017;DHT22;50274;45.640;11.756;2023-09-07T06:56:00;23.40;60.00
63017;DHT22;50274;45.640;11.756;2023-09-07T06:58:26;23.50;59.90
63017;DHT22;50274;45.640;11.756;2023-09-07T07:00:56;23.60;59.60
63017;DHT22;50274;45.640;11.756;2023-09-07T07:03:23;23.70;59.50
63017;DHT22;50274;45.640;11.756;2023-09-07T07:05:48;23.80;59.30
63017;DHT22;50274;45.640;11.756;2023-09-07T07:08:14;23.90;59.10
63017;DHT22;50274;45.640;11.756;2023-09-07T07:10:41;24.00;58.80
63017;DHT22;50274;45.640;11.756;2023-09-07T07:13:08;24.10;58.40
63017;DHT22;50274;45.640;11.756;2023-09-07T07:15:35;24.20;58.40
63017;DHT22;50274;45.640;11.756;2023-09-07T07:18:01;24.30;58.30
63017;DHT22;50274;45.640;11.756;2023-09-07T07:20:31;24.50;58.10
63017;DHT22;50274;45.640;11.756;2023-09-07T07:22:57;24.60;57.70
63017;DHT22;50274;45.640;11.756;2023-09-07T07:25:22;24.70;56.70
63017;DHT22;50274;45.640;11.756;2023-09-07T07:27:48;24.80;56.40
63017;DHT22;50274;45.640;11.756;2023-09-07T07:30:14;24.90;56.10
63017;DHT22;50274;45.640;11.756;2023-09-07T07:32:40;25.00;56.20
63017;DHT22;50274;45.640;11.756;2023-09-07T07:35:06;25.10;56.00
63017;DHT22;50274;45.640;11.756;2023-09-07T07:37:32;25.20;55.80
63017;DHT22;50274;45.640;11.756;2023-09-07T07:39:58;25.30;55.50
63017;DHT22;50274;45.640;11.756;2023-09-07T07:42:24;25.40;54.70
63017;DHT22;50274;45.640;11.756;2023-09-07T07:44:50;25.50;53.90
63017;DHT22;50274;45.640;11.756;2023-09-07T07:47:15;25.60;53.50
63017;DHT22;50274;45.640;11.756;2023-09-07T07:49:42;25.70;53.70
63017;DHT22;50274;45.640;11.756;2023-09-07T07:52:07;25.80;53.40
63017;DHT22;50274;45.640;11.756;2023-09-07T07:54:34;25.90;53.10
63017;DHT22;50274;45.640;11.756;2023-09-07T07:57:00;26.00;52.20
63017;DHT22;50274;45.640;11.756;2023-09-07T07:59:26;26.10;51.80
63017;DHT22;50274;45.640;11.756;2023-09-07T08:01:52;26.20;51.10
63017;DHT22;50274;45.640;11.756;2023-09-07T08:04:18;26.30;50.90
63017;DHT22;50274;45.640;11.756;2023-09-07T08:06:45;26.40;50.00
63017;DHT22;50274;45.640;11.756;2023-09-07T08:09:10;26.50;49.70
63017;DHT22;50274;45.640;11.756;2023-09-07T08:11:36;26.60;49.50
63017;DHT22;50274;45.640;11.756;2023-09-07T08:14:04;26.60;49.00
63017;DHT22;50274;45.640;11.756;2023-09-07T08:16:29;26.70;48.20
63017;DHT22;50274;45.640;11.756;2023-09-07T08:18:55;26.80;48.20
63017;DHT22;50274;45.640;11.756;2023-09-07T08:21:21;26.90;47.70
63017;DHT22;50274;45.640;11.756;2023-09-07T08:23:47;27.00;47.90
63017;DHT22;50274;45.640;11.756;2023-09-07T08:26:13;27.10;47.70
63017;DHT22;50274;45.640;11.756;2023-09-07T08:28:40;27.10;46.90
63017;DHT22;50274;45.640;11.756;2023-09-07T08:31:06;27.20;46.50
63017;DHT22;50274;45.640;11.756;2023-09-07T08:33:32;27.30;46.50
63017;DHT22;50274;45.640;11.756;2023-09-07T08:36:00;27.40;46.40
63017;DHT22;50274;45.640;11.756;2023-09-07T08:38:27;27.40;46.30
63017;DHT22;50274;45.640;11.756;2023-09-07T08:40:54;27.50;46.10
63017;DHT22;50274;45.640;11.756;2023-09-07T08:43:23;27.60;45.20
63017;DHT22;50274;45.640;11.756;2023-09-07T08:45:53;27.60;44.10
63017;DHT22;50274;45.640;11.756;2023-09-07T08:48:26;27.70;43.60
63017;DHT22;50274;45.640;11.756;2023-09-07T08:51:00;27.70;43.80
63017;DHT22;50274;45.640;11.756;2023-09-07T08:53:27;27.90;43.70
63017;DHT22;50274;45.640;11.756;2023-09-07T08:55:55;27.90;44.20
63017;DHT22;50274;45.640;11.756;2023-09-07T08:58:22;28.00;44.20
63017;DHT22;50274;45.640;11.756;2023-09-07T09:00:48;28.10;44.10
63017;DHT22;50274;45.640;11.756;2023-09-07T09:03:14;28.20;43.20
63017;DHT22;50274;45.640;11.756;2023-09-07T09:05:40;28.30;43.30
63017;DHT22;50274;45.640;11.756;2023-09-07T09:08:07;28.40;43.30
63017;DHT22;50274;45.640;11.756;2023-09-07T09:10:32;28.50;43.00
63017;DHT22;50274;45.640;11.756;2023-09-07T09:12:58;28.60;43.30
63017;DHT22;50274;45.640;11.756;2023-09-07T09:15:27;28.70;42.80
63017;DHT22;50274;45.640;11.756;2023-09-07T09:17:53;28.70;42.80
63017;DHT22;50274;45.640;11.756;2023-09-07T09:20:25;28.80;41.50
63017;DHT22;50274;45.640;11.756;2023-09-07T09:22:55;28.90;41.70
63017;DHT22;50274;45.640;11.756;2023-09-07T09:25:22;28.90;41.50
63017;DHT22;50274;45.640;11.756;2023-09-07T09:27:48;29.00;41.60
63017;DHT22;50274;45.640;11.756;2023-09-07T09:30:14;29.10;41.10
63017;DHT22;50274;45.640;11.756;2023-09-07T09:32:43;29.10;40.80
63017;DHT22;50274;45.640;11.756;2023-09-07T09:35:09;29.20;40.70
63017;DHT22;50274;45.640;11.756;2023-09-07T09:37:44;29.20;41.10
63017;DHT22;50274;45.640;11.756;2023-09-07T09:40:11;29.30;40.90
63017;DHT22;50274;45.640;11.756;2023-09-07T09:42:37;29.40;40.40
63017;DHT22;50274;45.640;11.756;2023-09-07T09:45:05;29.50;39.70
63017;DHT22;50274;45.640;11.756;2023-09-07T09:47:33;29.50;38.70
63017;DHT22;50274;45.640;11.756;2023-09-07T09:50:02;29.60;38.50
63017;DHT22;50274;45.640;11.756;2023-09-07T09:52:32;29.70;38.60
63017;DHT22;50274;45.640;11.756;2023-09-07T09:55:00;29.80;37.50
63017;DHT22;50274;45.640;11.756;2023-09-07T09:57:26;29.80;37.60
63017;DHT22;50274;45.640;11.756;2023-09-07T09:59:55;29.90;37.50
63017;DHT22;50274;45.640;11.756;2023-09-07T10:02:21;29.90;37.10
63017;DHT22;50274;45.640;11.756;2023-09-07T10:04:47;30.00;37.00
63017;DHT22;50274;45.640;11.756;2023-09-07T10:07:15;30.00;36.80
63017;DHT22;50274;45.640;11.756;2023-09-07T10:09:40;30.10;35.80
63017;DHT22;50274;45.640;11.756;2023-09-07T10:12:11;30.10;36.10
63017;DHT22;50274;45.640;11.756;2023-09-07T10:14:38;30.20;36.40
63017;DHT22;50274;45.640;11.756;2023-09-07T10:17:05;30.30;37.20
63017;DHT22;50274;45.640;11.756;2023-09-07T10:19:31;30.50;37.00
63017;DHT22;50274;45.640;11.756;2023-09-07T10:21:57;30.50;36.80
63017;DHT22;50274;45.640;11.756;2023-09-07T10:24:33;30.60;36.90
63017;DHT22;50274;45.640;11.756;2023-09-07T10:27:08;30.70;36.40
63017;DHT22;50274;45.640;11.756;2023-09-07T10:29:46;30.80;36.40
63017;DHT22;50274;45.640;11.756;2023-09-07T10:32:15;30.90;35.70
63017;DHT22;50274;45.640;11.756;2023-09-07T10:34:42;31.00;35.70
63017;DHT22;50274;45.640;11.756;2023-09-07T10:37:13;31.10;35.20
63017;DHT22;50274;45.640;11.756;2023-09-07T10:39:41;31.00;34.50
63017;DHT22;50274;45.640;11.756;2023-09-07T10:42:22;31.10;35.10
63017;DHT22;50274;45.640;11.756;2023-09-07T10:44:49;31.10;35.30
63017;DHT22;50274;45.640;11.756;2023-09-07T10:47:15;31.20;35.30
63017;DHT22;50274;45.640;11.756;2023-09-07T10:49:41;31.20;35.40
63017;DHT22;50274;45.640;11.756;2023-09-07T10:52:08;31.30;35.00
63017;DHT22;50274;45.640;11.756;2023-09-07T10:54:34;31.40;35.10
63017;DHT22;50274;45.640;11.756;2023-09-07T10:57:08;31.40;34.80
63017;DHT22;50274;45.640;11.756;2023-09-07T10:59:34;31.50;34.60
63017;DHT22;50274;45.640;11.756;2023-09-07T11:02:04;31.50;35.00
63017;DHT22;50274;45.640;11.756;2023-09-07T11:04:30;31.60;35.00
63017;DHT22;50274;45.640;11.756;2023-09-07T11:06:56;31.70;34.90
63017;DHT22;50274;45.640;11.756;2023-09-07T11:09:23;31.60;34.10
63017;DHT22;50274;45.640;11.756;2023-09-07T11:11:48;31.60;33.30
63017;DHT22;50274;45.640;11.756;2023-09-07T11:14:14;31.60;33.10
63017;DHT22;50274;45.640;11.756;2023-09-07T11:16:41;31.70;33.60
63017;DHT22;50274;45.640;11.756;2023-09-07T11:19:07;31.90;33.90
63017;DHT22;50274;45.640;11.756;2023-09-07T11:21:36;32.00;33.60
63017;DHT22;50274;45.640;11.756;2023-09-07T11:24:02;32.10;33.70
63017;DHT22;50274;45.640;11.756;2023-09-07T11:26:42;32.30;33.70
63017;DHT22;50274;45.640;11.756;2023-09-07T11:29:08;32.50;33.60
63017;DHT22;50274;45.640;11.756;2023-09-07T11:31:34;32.70;33.60
63017;DHT22;50274;45.640;11.756;2023-09-07T11:34:00;32.90;33.70
63017;DHT22;50274;45.640;11.756;2023-09-07T11:36:26;33.10;33.00
63017;DHT22;50274;45.640;11.756;2023-09-07T11:38:51;32.90;31.80
63017;DHT22;50274;45.640;11.756;2023-09-07T11:41:17;32.90;31.80
63017;DHT22;50274;45.640;11.756;2023-09-07T11:43:43;32.80;32.10
63017;DHT22;50274;45.640;11.756;2023-09-07T11:46:10;32.90;32.30
63017;DHT22;50274;45.640;11.756;2023-09-07T11:48:36;33.00;32.30
63017;DHT22;50274;45.640;11.756;2023-09-07T11:51:02;33.20;32.90
63017;DHT22;50274;45.640;11.756;2023-09-07T11:53:28;33.30;32.20
63017;DHT22;50274;45.640;11.756;2023-09-07T11:55:56;33.00;29.80
63017;DHT22;50274;45.640;11.756;2023-09-07T11:58:22;33.00;30.10
63017;DHT22;50274;45.640;11.756;2023-09-07T12:00:50;33.10;30.60
63017;DHT22;50274;45.640;11.756;2023-09-07T12:03:16;33.10;30.30
63017;DHT22;50274;45.640;11.756;2023-09-07T12:05:41;33.20;30.90
63017;DHT22;50274;45.640;11.756;2023-09-07T12:08:09;33.30;30.70
63017;DHT22;50274;45.640;11.756;2023-09-07T12:10:35;33.40;30.70
63017;DHT22;50274;45.640;11.756;2023-09-07T12:13:01;33.20;30.30
63017;DHT22;50274;45.640;11.756;2023-09-07T12:15:27;33.30;30.50
63017;DHT22;50274;45.640;11.756;2023-09-07T12:17:53;33.40;30.40
63017;DHT22;50274;45.640;11.756;2023-09-07T12:20:21;33.50;30.00
63017;DHT22;50274;45.640;11.756;2023-09-07T12:22:47;33.70;30.20
63017;DHT22;50274;45.640;11.756;2023-09-07T12:25:14;33.60;30.10
63017;DHT22;50274;45.640;11.756;2023-09-07T12:27:41;33.80;30.20
63017;DHT22;50274;45.640;11.756;2023-09-07T12:30:09;33.60;30.00
63017;DHT22;50274;45.640;11.756;2023-09-07T12:32:41;33.30;30.20
63017;DHT22;50274;45.640;11.756;2023-09-07T12:35:07;33.30;30.50
63017;DHT22;50274;45.640;11.756;2023-09-07T12:37:35;33.20;30.30
63017;DHT22;50274;45.640;11.756;2023-09-07T12:40:04;33.20;30.50
63017;DHT22;50274;45.640;11.756;2023-09-07T12:42:44;33.50;30.50
63017;DHT22;50274;45.640;11.756;2023-09-07T12:45:11;33.70;30.60
63017;DHT22;50274;45.640;11.756;2023-09-07T12:47:38;33.90;30.60
63017;DHT22;50274;45.640;11.756;2023-09-07T12:50:04;34.10;30.60
63017;DHT22;50274;45.640;11.756;2023-09-07T12:52:31;34.10;30.60
63017;DHT22;50274;45.640;11.756;2023-09-07T12:54:57;34.30;30.70
63017;DHT22;50274;45.640;11.756;2023-09-07T12:57:23;34.40;30.90
63017;DHT22;50274;45.640;11.756;2023-09-07T12:59:49;34.40;30.40
63017;DHT22;50274;45.640;11.756;2023-09-07T13:02:15;34.50;30.10
63017;DHT22;50274;45.640;11.756;2023-09-07T13:04:41;34.60;30.50
63017;DHT22;50274;45.640;11.756;2023-09-07T13:07:06;34.60;30.20
63017;DHT22;50274;45.640;11.756;2023-09-07T13:09:32;34.50;29.90
63017;DHT22;50274;45.640;11.756;2023-09-07T13:11:58;34.60;30.30
63017;DHT22;50274;45.640;11.756;2023-09-07T13:14:24;34.60;30.00
63017;DHT22;50274;45.640;11.756;2023-09-07T13:16:50;34.50;29.90
63017;DHT22;50274;45.640;11.756;2023-09-07T13:19:16;34.50;30.10
63017;DHT22;50274;45.640;11.756;2023-09-07T13:21:42;34.50;29.70
63017;DHT22;50274;45.640;11.756;2023-09-07T13:24:08;34.60;29.90
63017;DHT22;50274;45.640;11.756;2023-09-07T13:26:34;34.70;30.10
63017;DHT22;50274;45.640;11.756;2023-09-07T13:28:59;34.70;29.70
63017;DHT22;50274;45.640;11.756;2023-09-07T13:31:25;34.80;29.90
63017;DHT22;50274;45.640;11.756;2023-09-07T13:33:51;34.80;29.60
63017;DHT22;50274;45.640;11.756;2023-09-07T13:36:17;34.70;29.80
63017;DHT22;50274;45.640;11.756;2023-09-07T13:38:42;34.50;30.10
63017;DHT22;50274;45.640;11.756;2023-09-07T13:41:09;34.40;30.30
63017;DHT22;50274;45.640;11.756;2023-09-07T13:43:35;34.30;30.60
63017;DHT22;50274;45.640;11.756;2023-09-07T13:46:01;34.40;30.90
63017;DHT22;50274;45.640;11.756;2023-09-07T13:48:26;34.40;30.70
63017;DHT22;50274;45.640;11.756;2023-09-07T13:50:52;34.40;30.70
63017;DHT22;50274;45.640;11.756;2023-09-07T13:53:18;34.10;30.70
63017;DHT22;50274;45.640;11.756;2023-09-07T13:55:44;34.10;30.80
63017;DHT22;50274;45.640;11.756;2023-09-07T13:58:12;34.20;30.70
63017;DHT22;50274;45.640;11.756;2023-09-07T14:00:37;34.40;30.40
63017;DHT22;50274;45.640;11.756;2023-09-07T14:03:04;34.30;29.90
63017;DHT22;50274;45.640;11.756;2023-09-07T14:05:30;34.30;30.00
63017;DHT22;50274;45.640;11.756;2023-09-07T14:07:55;34.40;30.30
63017;DHT22;50274;45.640;11.756;2023-09-07T14:10:22;34.50;30.30
63017;DHT22;50274;45.640;11.756;2023-09-07T14:12:48;34.50;30.40
63017;DHT22;50274;45.640;11.756;2023-09-07T14:15:14;34.60;30.50
63017;DHT22;50274;45.640;11.756;2023-09-07T14:17:40;34.60;31.00
63017;DHT22;50274;45.640;11.756;2023-09-07T14:20:06;34.70;31.20
63017;DHT22;50274;45.640;11.756;2023-09-07T14:22:32;34.60;30.90
63017;DHT22;50274;45.640;11.756;2023-09-07T14:24:58;34.40;30.30
63017;DHT22;50274;45.640;11.756;2023-09-07T14:27:24;34.20;30.60
63017;DHT22;50274;45.640;11.756;2023-09-07T14:29:52;34.10;30.50
63017;DHT22;50274;45.640;11.756;2023-09-07T14:32:17;33.90;30.80
63017;DHT22;50274;45.640;11.756;2023-09-07T14:34:43;33.70;30.80
63017;DHT22;50274;45.640;11.756;2023-09-07T14:37:10;33.80;31.00
63017;DHT22;50274;45.640;11.756;2023-09-07T14:39:35;33.70;31.30
63017;DHT22;50274;45.640;11.756;2023-09-07T14:42:01;33.70;31.10
63017;DHT22;50274;45.640;11.756;2023-09-07T14:44:27;33.70;31.00
63017;DHT22;50274;45.640;11.756;2023-09-07T14:46:53;33.50;31.00
63017;DHT22;50274;45.640;11.756;2023-09-07T14:49:19;33.50;31.30
63017;DHT22;50274;45.640;11.756;2023-09-07T14:51:46;33.40;31.10
63017;DHT22;50274;45.640;11.756;2023-09-07T14:54:12;33.40;30.80
63017;DHT22;50274;45.640;11.756;2023-09-07T14:56:39;33.40;31.10
63017;DHT22;50274;45.640;11.756;2023-09-07T14:59:05;33.40;31.10
63017;DHT22;50274;45.640;11.756;2023-09-07T15:01:32;33.50;31.30
63017;DHT22;50274;45.640;11.756;2023-09-07T15:03:57;33.40;31.60
63017;DHT22;50274;45.640;11.756;2023-09-07T15:06:23;33.30;30.90
63017;DHT22;50274;45.640;11.756;2023-09-07T15:08:49;33.20;30.80
63017;DHT22;50274;45.640;11.756;2023-09-07T15:11:16;33.10;30.90